Flight Track Log - Related Links

Times and Time Zones

All times are in EDT time to prevent confusion due to time zone crossing. See the POE433 flight status page for this flight to view local times or setup timezone preferences in your user account.

Time Position Orientation Groundspeed Altitude Reporting Facility
EDT Latitude Longitude Course Direction KTS MPH feet Rate Location/Type
Thu 10:21:50 PM 43.6333 -79.3333 64° Northeast 150 173 2,300  Level Toronto Center
Thu 10:22:50 PM 43.6667 -79.2667 55° Northeast 200 230 5,000 2,500 Climbing Toronto Center
Thu 10:23:50 PM 43.7000 -79.2000 55° Northeast 230 265 7,300 2,400 Climbing Toronto Center
Thu 10:24:50 PM 43.7333 -79.1000 65° Northeast 260 299 9,800 2,450 Climbing Toronto Center
Thu 10:25:50 PM 43.7667 -79.0167 61° Northeast 270 311 12,200 2,350 Climbing Toronto Center
Thu 10:26:00 PM 43.9025 -78.6451 55° Northeast  Level FlightAware Approximate
Thu 10:26:50 PM 43.8000 -78.9167 65° Northeast 270 311 14,500  Level Toronto Center
Thu 10:27:00 PM 43.9442 -78.5397 64° Northeast  Level FlightAware Approximate
Thu 10:27:50 PM 43.8333 -78.8000 68° East 280 322 16,800  Level Toronto Center
Thu 10:28:50 PM 43.8667 -78.7333 55° Northeast 280 322 18,700 1,950 Climbing Toronto Center
Thu 10:29:50 PM 43.9167 -78.6167 59° Northeast 280 322 20,700 1,850 Climbing Toronto Center
Thu 10:30:50 PM 43.9500 -78.5167 65° Northeast 280 322 22,400 1,150 Climbing Toronto Center
Thu 10:31:50 PM 43.9667 -78.4333 74° East 280 322 23,000 300 Climbing Toronto Center
Thu 10:32:50 PM 44.0167 -78.3167 59° Northeast 330 380 23,000  Level Toronto Center
Thu 10:33:50 PM 44.0667 -78.2000 59° Northeast 350 403 23,000  Level Toronto Center
Thu 10:34:50 PM 44.1167 -78.0833 59° Northeast 360 414 23,000  Level Toronto Center
Thu 10:35:50 PM 44.1667 -77.9333 65° Northeast 370 426 23,000  Level Toronto Center
Thu 10:36:50 PM 44.2000 -77.8000 71° East 370 426 23,000  Level Toronto Center
Thu 10:37:50 PM 44.2333 -77.6833 68° East 370 426 23,000  Level Toronto Center
Thu 10:38:50 PM 44.2667 -77.5667 68° East 360 414 23,000  Level Toronto Center
Thu 10:39:50 PM 44.3167 -77.4167 65° Northeast 360 414 23,000  Level Toronto Center
Thu 10:40:50 PM 44.3333 -77.2833 80° East 360 414 23,000  Level Toronto Center
Thu 10:41:50 PM 44.3667 -77.1333 73° East 360 414 23,000  Level Toronto Center
Thu 10:42:09 PM 44.3833 -77.1333 360° North 360 414 23,000  Level Montreal Center
Thu 10:43:09 PM 44.4167 -77.0000 71° East 360 414 23,000  Level Montreal Center
Thu 10:44:09 PM 44.4500 -76.8833 68° East 360 414 23,000  Level Montreal Center
Thu 10:45:09 PM 44.4833 -76.7500 71° East 360 414 23,000  Level Montreal Center
Thu 10:45:50 PM 44.5000 -76.6167 80° East 370 426 23,000  Level Toronto Center
Thu 10:46:50 PM 44.5500 -76.4667 65° Northeast 370 426 23,000  Level Toronto Center
Thu 10:47:50 PM 44.5833 -76.3500 68° East 370 426 23,000  Level Toronto Center
Thu 10:48:50 PM 44.6167 -76.2167 71° East 380 437 23,000  Level Toronto Center
Thu 10:49:09 PM 44.6333 -76.1833 55° Northeast 370 426 23,000  Level Montreal Center
Thu 10:50:09 PM 44.6667 -76.0667 68° East 370 426 23,000  Level Montreal Center
Thu 10:51:09 PM 44.7000 -75.9167 73° East 370 426 23,000  Level Montreal Center
Thu 10:52:09 PM 44.7500 -75.7833 62° Northeast 380 437 23,000  Level Montreal Center
Thu 10:53:09 PM 44.7833 -75.6667 68° East 370 426 23,000 -350 Level Montreal Center
Thu 10:54:09 PM 44.8333 -75.5167 65° Northeast 370 426 22,300 -1,100 Descending Montreal Center
Thu 10:55:09 PM 44.8667 -75.4000 68° East 370 426 20,800 -1,550 Descending Montreal Center
Thu 10:56:09 PM 44.9167 -75.2667 62° Northeast 360 414 19,200 -1,550 Descending Montreal Center
Thu 10:57:09 PM 44.9667 -75.1333 62° Northeast 360 414 17,700 -1,550 Descending Montreal Center
Thu 10:58:09 PM 45.0000 -75.0000 70° East 360 414 16,100 -1,500 Descending Montreal Center
Thu 10:59:09 PM 45.0500 -74.8833 59° Northeast 350 403 14,700 -1,400 Descending Montreal Center
Thu 11:00:09 PM 45.0833 -74.7667 68° East 340 391 13,300 -1,450 Descending Montreal Center
Thu 11:01:09 PM 45.1167 -74.6333 70° East 330 380 11,800 -1,350 Descending Montreal Center
Thu 11:02:09 PM 45.1500 -74.5500 60° Northeast 310 357 10,600 -1,200 Descending Montreal Center
Thu 11:03:09 PM 45.1833 -74.4167 70° East 280 322 9,400 -1,150 Descending Montreal Center
Thu 11:04:09 PM 45.2000 -74.3333 74° East 280 322 8,300 -1,100 Descending Montreal Center
Thu 11:05:09 PM 45.2333 -74.2333 65° Northeast 280 322 7,200 -1,100 Descending Montreal Center
Thu 11:06:09 PM 45.2667 -74.1333 65° Northeast 260 299 6,100 -1,050 Descending Montreal Center
Thu 11:07:09 PM 45.2667 -74.0333 90° East 240 276 5,100 -1,000 Descending Montreal Center
Thu 11:08:09 PM 45.3000 -73.9500 60° Northeast 230 265 4,100 -1,000 Descending Montreal Center
Thu 11:09:09 PM 45.3333 -73.9000 47° Northeast 200 230 3,100 -1,000 Descending Montreal Center
Thu 11:10:09 PM 45.3667 -73.8500 46° Northeast 180 207 2,100 -950 Descending Montreal Center
Thu 11:11:09 PM 45.4000 -73.8000 46° Northeast 170 196 1,200 -850 Descending Montreal Center
Thu 11:12:09 PM 45.4333 -73.7667 35° Northeast 140 161 400 -500 Descending Montreal Center
Thu 11:13:09 PM 45.4667 -73.7500 19° North 10 12 200 -200 Descending Montreal Center

Login

Don't have an account? Register now (free) for customized features, flight alerts, and more!